createdAt,value
2022-11-24T00:01:16.586Z,92.41
2022-11-24T00:03:44.068Z,92.65
2022-11-24T00:06:12.699Z,92.64
2022-11-24T00:08:41.033Z,92.58
2022-11-24T00:11:10.215Z,92.52
2022-11-24T00:13:37.336Z,92.03
2022-11-24T00:16:09.325Z,92.49
2022-11-24T00:18:37.767Z,92.46
2022-11-24T00:21:04.821Z,92.28
2022-11-24T00:23:31.724Z,92.44
2022-11-24T00:26:04.209Z,92.67
2022-11-24T00:28:31.907Z,92.20
2022-11-24T00:30:58.681Z,91.96
2022-11-24T00:33:25.425Z,92.02
2022-11-24T00:35:56.021Z,92.25
2022-11-24T00:38:22.847Z,92.19
2022-11-24T00:40:49.702Z,92.11
2022-11-24T00:43:16.356Z,92.08
2022-11-24T00:45:43.454Z,92.08
2022-11-24T00:48:10.308Z,92.12
2022-11-24T00:50:37.059Z,92.08
2022-11-24T00:53:05.170Z,92.24
2022-11-24T00:55:31.972Z,92.15
2022-11-24T00:57:58.863Z,91.94
2022-11-24T01:00:25.640Z,92.21
2022-11-24T01:02:52.555Z,92.01
2022-11-24T01:05:19.457Z,91.70
2022-11-24T01:07:46.207Z,91.76
2022-11-24T01:10:14.439Z,91.62
2022-11-24T01:12:41.124Z,91.66
2022-11-24T01:15:08.600Z,91.35
2022-11-24T01:17:35.294Z,91.42
2022-11-24T01:20:02.029Z,91.64
2022-11-24T01:22:28.759Z,91.16
2022-11-24T01:24:55.442Z,91.24
2022-11-24T01:27:23.521Z,91.55
2022-11-24T01:29:50.171Z,91.53
2022-11-24T01:32:16.865Z,90.98
2022-11-24T01:34:43.642Z,91.20
2022-11-24T01:37:10.361Z,91.20
2022-11-24T01:39:37.040Z,91.17
2022-11-24T01:42:03.824Z,91.34
2022-11-24T01:44:32.222Z,91.09
2022-11-24T01:47:02.708Z,90.98
2022-11-24T01:49:38.349Z,90.79
2022-11-24T01:52:08.433Z,91.18
2022-11-24T01:54:38.149Z,90.74
2022-11-24T01:57:11.223Z,90.68
2022-11-24T01:59:39.490Z,90.30
2022-11-24T02:02:06.730Z,90.44
2022-11-24T02:04:34.575Z,90.52
2022-11-24T02:07:03.308Z,90.31
2022-11-24T02:09:36.080Z,90.32
2022-11-24T02:12:03.264Z,90.25
2022-11-24T02:14:30.157Z,90.30
2022-11-24T02:16:58.284Z,90.46
2022-11-24T02:19:37.627Z,90.16
2022-11-24T02:22:05.021Z,90.47
2022-11-24T02:24:40.104Z,90.15
2022-11-24T02:27:10.653Z,89.93
2022-11-24T02:29:37.967Z,90.02
2022-11-24T02:32:07.533Z,90.08
2022-11-24T02:34:34.831Z,89.97
2022-11-24T02:37:01.783Z,90.08
2022-11-24T02:39:28.683Z,89.81
2022-11-24T02:41:59.337Z,89.91
2022-11-24T02:44:32.633Z,89.89
2022-11-24T02:47:03.828Z,89.87
2022-11-24T02:49:30.511Z,89.97
2022-11-24T02:51:57.290Z,89.83
2022-11-24T02:54:24.113Z,89.61
2022-11-24T02:56:50.956Z,89.35
2022-11-24T02:59:17.769Z,89.53
2022-11-24T03:01:45.907Z,89.69
2022-11-24T03:04:12.716Z,89.73
2022-11-24T03:06:39.561Z,89.29
2022-11-24T03:09:06.511Z,89.56
2022-11-24T03:11:33.280Z,89.32
2022-11-24T03:14:00.046Z,89.11
2022-11-24T03:16:26.794Z,89.02
2022-11-24T03:18:54.938Z,89.00
2022-11-24T03:21:21.686Z,88.93
2022-11-24T03:23:48.405Z,88.70
2022-11-24T03:26:17.542Z,89.09
2022-11-24T03:28:44.467Z,88.73
2022-11-24T03:31:12.077Z,88.76
2022-11-24T03:33:39.374Z,88.76
2022-11-24T03:36:08.824Z,89.10
2022-11-24T03:38:35.506Z,89.31
2022-11-24T03:41:02.260Z,89.22
2022-11-24T03:43:29.022Z,88.92
2022-11-24T03:45:55.846Z,89.19
2022-11-24T03:48:22.633Z,89.25
2022-11-24T03:50:54.012Z,88.99
2022-11-24T03:53:22.634Z,88.69
2022-11-24T03:55:49.344Z,88.90
2022-11-24T03:58:16.068Z,88.61
2022-11-24T04:00:42.952Z,88.52
2022-11-24T04:03:09.717Z,88.66
2022-11-24T04:05:36.712Z,89.04
2022-11-24T04:08:03.562Z,88.89
2022-11-24T04:10:32.192Z,88.88
2022-11-24T04:12:58.955Z,88.86
2022-11-24T04:15:25.552Z,88.96
2022-11-24T04:17:55.603Z,89.63
2022-11-24T04:20:23.099Z,89.47
2022-11-24T04:22:50.178Z,89.22
2022-11-24T04:25:16.844Z,89.20
2022-11-24T04:27:44.864Z,89.24
2022-11-24T04:30:11.915Z,89.47
2022-11-24T04:32:38.543Z,89.40
2022-11-24T04:35:05.875Z,89.15
2022-11-24T04:37:32.525Z,88.95
2022-11-24T04:39:59.236Z,88.97
2022-11-24T04:42:25.909Z,89.09
2022-11-24T04:44:53.860Z,89.40
2022-11-24T04:47:23.103Z,89.02
2022-11-24T04:49:50.347Z,88.94
2022-11-24T04:52:17.329Z,88.66
2022-11-24T04:54:44.147Z,88.93
2022-11-24T04:57:16.184Z,88.86
2022-11-24T04:59:43.056Z,88.66
2022-11-24T05:02:11.373Z,88.63
2022-11-24T05:04:38.308Z,88.69
2022-11-24T05:07:05.374Z,88.73
2022-11-24T05:09:54.923Z,89.02
2022-11-24T05:12:18.577Z,88.68
2022-11-24T05:14:45.181Z,88.78
2022-11-24T05:17:13.142Z,88.52
2022-11-24T05:19:39.741Z,89.01
2022-11-24T05:22:06.363Z,88.77
2022-11-24T05:24:33.148Z,88.39
2022-11-24T05:26:59.973Z,88.37
2022-11-24T05:29:26.576Z,88.56
2022-11-24T05:31:53.168Z,88.76
2022-11-24T05:34:21.186Z,88.55
2022-11-24T05:36:47.718Z,88.72
2022-11-24T05:39:14.315Z,88.52
2022-11-24T05:41:41.774Z,88.70
2022-11-24T05:44:08.519Z,88.89
2022-11-24T05:46:35.132Z,88.93
2022-11-24T05:49:01.845Z,88.52
2022-11-24T05:51:29.960Z,88.61
2022-11-24T05:53:56.646Z,88.36
2022-11-24T05:56:23.201Z,88.39
2022-11-24T05:58:49.740Z,88.89
2022-11-24T06:01:16.292Z,88.72
2022-11-24T06:03:42.856Z,88.61
2022-11-24T06:06:10.428Z,88.40
2022-11-24T06:08:38.369Z,88.24
2022-11-24T06:11:05.098Z,88.71
2022-11-24T06:13:31.687Z,88.40
2022-11-24T06:15:59.373Z,88.61
2022-11-24T06:18:25.983Z,88.59
2022-11-24T06:21:09.780Z,88.49
2022-11-24T06:23:38.603Z,88.52
2022-11-24T06:26:05.533Z,88.37
2022-11-24T06:28:32.137Z,88.50
2022-11-24T06:31:02.408Z,88.46
2022-11-24T06:33:31.779Z,88.22
2022-11-24T06:36:00.397Z,88.30
2022-11-24T06:38:27.056Z,88.25
2022-11-24T06:41:00.343Z,88.07
2022-11-24T06:43:26.969Z,88.38
2022-11-24T06:45:53.602Z,88.44
2022-11-24T06:48:20.229Z,88.66
2022-11-24T06:50:46.818Z,88.86
2022-11-24T06:53:13.370Z,88.71
2022-11-24T06:55:40.159Z,88.76
2022-11-24T06:58:08.074Z,88.54
2022-11-24T07:00:34.699Z,88.75
2022-11-24T07:03:01.370Z,88.83
2022-11-24T07:05:28.210Z,88.94
2022-11-24T07:07:54.855Z,89.00
2022-11-24T07:10:21.696Z,88.76
2022-11-24T07:12:48.292Z,88.96
2022-11-24T07:15:16.411Z,88.80
2022-11-24T07:17:42.988Z,89.18
2022-11-24T07:20:10.409Z,88.80
2022-11-24T07:22:36.996Z,89.13
2022-11-24T07:25:03.951Z,88.82
2022-11-24T07:27:30.531Z,88.80
2022-11-24T07:29:57.144Z,88.84
2022-11-24T07:32:25.180Z,88.80
2022-11-24T07:34:51.774Z,89.02
2022-11-24T07:37:18.364Z,88.83
2022-11-24T07:39:44.894Z,89.08
2022-11-24T07:42:11.534Z,88.96
2022-11-24T07:44:38.076Z,89.10
2022-11-24T07:47:04.696Z,89.07
2022-11-24T07:49:32.684Z,88.87
2022-11-24T07:51:59.277Z,88.93
2022-11-24T07:54:25.823Z,88.86
2022-11-24T07:56:52.346Z,88.84
2022-11-24T07:59:18.928Z,88.96
2022-11-24T08:01:45.525Z,89.11
2022-11-24T08:04:12.293Z,89.67
2022-11-24T08:06:45.944Z,89.81
2022-11-24T08:09:13.858Z,89.84
2022-11-24T08:11:40.628Z,89.53
2022-11-24T08:14:07.234Z,89.39
2022-11-24T08:16:33.892Z,89.57
2022-11-24T08:19:00.506Z,89.08
2022-11-24T08:21:27.046Z,88.97
2022-11-24T08:23:56.241Z,89.11
2022-11-24T08:26:23.391Z,89.41
2022-11-24T08:28:54.069Z,89.67
2022-11-24T08:31:20.802Z,88.96
2022-11-24T08:33:47.436Z,89.28
2022-11-24T08:36:15.630Z,89.58
2022-11-24T08:38:42.682Z,89.89
2022-11-24T08:41:12.417Z,89.66
2022-11-24T08:43:39.492Z,89.43
2022-11-24T08:46:09.214Z,89.33
2022-11-24T08:48:36.808Z,89.38
2022-11-24T08:51:07.272Z,89.21
2022-11-24T08:53:33.970Z,89.30
2022-11-24T08:56:00.767Z,88.68
2022-11-24T08:58:29.773Z,88.71
2022-11-24T09:01:03.206Z,88.92
2022-11-24T09:03:29.894Z,88.93
2022-11-24T09:05:56.458Z,88.81
2022-11-24T09:08:23.026Z,89.05
2022-11-24T09:10:49.576Z,88.69
2022-11-24T09:13:16.183Z,88.92
2022-11-24T09:15:44.151Z,88.81
2022-11-24T09:18:10.685Z,89.03
2022-11-24T09:20:37.372Z,88.57
2022-11-24T09:23:03.912Z,88.38
2022-11-24T09:25:30.490Z,88.18
2022-11-24T09:27:57.171Z,88.03
2022-11-24T09:30:24.007Z,88.07
2022-11-24T09:32:51.976Z,88.83
2022-11-24T09:35:18.593Z,88.96
2022-11-24T09:37:45.184Z,88.61
2022-11-24T09:40:14.752Z,88.31
2022-11-24T09:42:53.513Z,88.34
2022-11-24T09:46:03.318Z,87.75
2022-11-24T09:48:25.562Z,87.49
2022-11-24T09:50:52.994Z,87.45
2022-11-24T09:53:27.401Z,87.69
2022-11-24T09:55:58.428Z,87.55
2022-11-24T09:58:35.833Z,86.67
2022-11-24T10:01:07.706Z,86.81
2022-11-24T10:03:39.148Z,87.62
2022-11-24T10:06:19.718Z,87.47
2022-11-24T10:09:30.738Z,86.92
2022-11-24T10:12:13.187Z,86.43
2022-11-24T10:15:00.815Z,86.93
2022-11-24T10:17:42.622Z,86.89
2022-11-24T10:20:19.100Z,85.84
2022-11-24T10:22:58.060Z,85.34
2022-11-24T10:25:26.129Z,85.64
2022-11-24T10:27:57.951Z,85.74
2022-11-24T10:30:24.659Z,85.68
2022-11-24T10:32:56.836Z,84.90
2022-11-24T10:35:29.690Z,85.29
2022-11-24T10:38:02.382Z,84.69
2022-11-24T10:43:26.459Z,85.16
2022-11-24T10:45:53.378Z,85.29
2022-11-24T10:48:24.108Z,85.05
2022-11-24T10:50:53.199Z,85.02
2022-11-24T10:53:24.616Z,84.97
2022-11-24T10:56:02.080Z,84.51
2022-11-24T10:58:36.025Z,84.62
2022-11-24T11:01:27.548Z,84.79
2022-11-24T11:03:57.966Z,84.44
2022-11-24T11:06:28.152Z,85.00
2022-11-24T11:09:16.687Z,84.72
2022-11-24T11:11:43.253Z,84.78
2022-11-24T11:14:11.068Z,84.55
2022-11-24T11:16:39.833Z,84.26
2022-11-24T11:19:48.525Z,84.28
2022-11-24T11:22:25.406Z,84.20
2022-11-24T11:25:05.677Z,84.10
2022-11-24T11:27:32.342Z,84.44
2022-11-24T11:35:51.826Z,84.39
2022-11-24T11:38:20.665Z,84.37
2022-11-24T11:40:50.219Z,84.41
2022-11-24T11:43:25.751Z,84.24
2022-11-24T11:46:02.183Z,84.44
2022-11-24T11:48:40.593Z,84.61
2022-11-24T11:51:30.770Z,84.63
2022-11-24T11:54:07.911Z,84.60
2022-11-24T11:56:37.998Z,84.62
2022-11-24T11:59:37.541Z,85.00
2022-11-24T12:02:33.321Z,84.87
2022-11-24T12:05:01.935Z,84.50
2022-11-24T12:07:58.154Z,84.80
2022-11-24T12:10:36.222Z,84.29
2022-11-24T12:13:28.741Z,84.41
2022-11-24T12:15:58.805Z,84.50
2022-11-24T12:18:56.589Z,84.31
2022-11-24T12:21:29.738Z,84.43
2022-11-24T12:24:04.528Z,84.30
2022-11-24T12:26:42.581Z,84.40
2022-11-24T12:30:06.038Z,84.79
2022-11-24T12:33:00.924Z,84.71
2022-11-24T12:35:34.326Z,84.59
2022-11-24T12:38:05.420Z,84.33
2022-11-24T12:41:06.495Z,84.26
2022-11-24T12:43:50.122Z,84.06
2022-11-24T12:46:21.112Z,84.11
2022-11-24T12:48:57.640Z,84.48
2022-11-24T12:51:29.234Z,84.81
2022-11-24T12:53:58.529Z,84.65
2022-11-24T12:56:35.990Z,84.50
2022-11-24T12:59:17.950Z,84.66
2022-11-24T13:01:51.174Z,84.68
2022-11-24T13:04:29.898Z,84.55
2022-11-24T13:07:01.179Z,84.75
2022-11-24T13:09:27.794Z,85.13
2022-11-24T13:12:05.180Z,85.32
2022-11-24T13:14:37.548Z,85.63
2022-11-24T13:17:38.310Z,85.66
2022-11-24T13:20:24.168Z,85.84
2022-11-24T13:22:52.719Z,85.59
2022-11-24T13:25:21.629Z,85.47
2022-11-24T13:27:50.036Z,85.66
2022-11-24T13:30:55.274Z,85.37
2022-11-24T13:33:33.815Z,85.44
2022-11-24T13:36:32.610Z,85.82
2022-11-24T13:39:01.038Z,85.54
2022-11-24T13:42:07.594Z,85.59
2022-11-24T13:44:53.994Z,85.44
2022-11-24T13:47:37.424Z,85.46
2022-11-24T13:50:06.884Z,85.44
2022-11-24T13:52:43.811Z,84.94
2022-11-24T13:55:22.822Z,84.85
2022-11-24T13:57:52.079Z,84.83
2022-11-24T14:00:21.975Z,85.01
2022-11-24T14:02:51.695Z,84.91
2022-11-24T14:05:22.550Z,84.92
2022-11-24T14:07:53.008Z,84.85
2022-11-24T14:10:24.461Z,84.68
2022-11-24T14:13:25.054Z,85.04
2022-11-24T14:15:59.416Z,85.06
2022-11-24T14:18:27.954Z,85.09
2022-11-24T14:20:54.781Z,85.14
2022-11-24T14:23:21.865Z,85.15
2022-11-24T14:25:49.724Z,85.60
2022-11-24T14:28:22.799Z,85.61
2022-11-24T14:30:49.530Z,85.69
2022-11-24T14:33:18.510Z,85.32
2022-11-24T14:35:47.965Z,85.23
2022-11-24T14:38:14.685Z,85.59
2022-11-24T14:40:43.508Z,85.55
2022-11-24T14:43:21.548Z,85.59
2022-11-24T14:45:53.314Z,85.71
2022-11-24T14:48:25.632Z,85.72
2022-11-24T14:50:54.754Z,85.35
2022-11-24T14:53:26.184Z,85.96
2022-11-24T14:56:14.035Z,86.11
2022-11-24T14:58:42.459Z,85.97
2022-11-24T15:01:17.900Z,85.93
2022-11-24T15:03:44.584Z,85.90
2022-11-24T15:06:18.131Z,85.92
2022-11-24T15:08:46.906Z,86.14
2022-11-24T15:11:14.644Z,86.05
2022-11-24T15:13:53.063Z,86.14
2022-11-24T15:16:23.158Z,86.39
2022-11-24T15:18:57.382Z,86.33
2022-11-24T15:21:32.651Z,86.46
2022-11-24T15:24:07.492Z,86.31
2022-11-24T15:26:38.519Z,86.53
2022-11-24T15:29:08.818Z,86.57
2022-11-24T15:31:35.614Z,86.64
2022-11-24T15:34:02.216Z,86.76
2022-11-24T15:36:28.865Z,86.65
2022-11-24T15:38:56.860Z,86.64
2022-11-24T15:41:28.313Z,86.75
2022-11-24T15:43:54.887Z,87.21
2022-11-24T15:46:21.646Z,87.38
2022-11-24T15:48:48.262Z,87.22
2022-11-24T15:51:15.277Z,87.30
2022-11-24T15:53:45.016Z,87.44
2022-11-24T15:56:19.070Z,87.49
2022-11-24T15:58:45.694Z,87.58
2022-11-24T16:01:12.289Z,87.52
2022-11-24T16:03:47.091Z,87.42
2022-11-24T16:06:22.184Z,87.44
2022-11-24T16:08:51.366Z,87.50
2022-11-24T16:11:19.297Z,87.39
2022-11-24T16:13:51.799Z,87.41
2022-11-24T16:16:20.590Z,87.82
2022-11-24T16:18:47.338Z,87.60
2022-11-24T16:21:13.993Z,87.68
2022-11-24T16:23:40.655Z,87.68
2022-11-24T16:26:07.518Z,87.80
2022-11-24T16:28:35.513Z,88.18
2022-11-24T16:31:02.301Z,88.20
2022-11-24T16:33:29.639Z,88.24
2022-11-24T16:35:56.407Z,88.34
2022-11-24T16:38:23.029Z,88.18
2022-11-24T16:40:51.263Z,87.86
2022-11-24T16:43:18.028Z,88.02
2022-11-24T16:45:46.203Z,87.93
2022-11-24T16:48:12.896Z,87.86
2022-11-24T16:50:39.495Z,87.77
2022-11-24T16:53:06.087Z,87.73
2022-11-24T16:55:32.670Z,87.71
2022-11-24T16:57:59.222Z,87.69
2022-11-24T17:00:25.762Z,87.86
2022-11-24T17:02:53.936Z,87.45
2022-11-24T17:05:20.612Z,87.53
2022-11-24T17:07:47.293Z,87.41
2022-11-24T17:10:14.010Z,87.05
2022-11-24T17:12:40.559Z,87.01
2022-11-24T17:15:31.849Z,86.99
2022-11-24T17:18:23.043Z,87.10
2022-11-24T17:20:42.274Z,87.07
2022-11-24T17:23:08.859Z,87.36
2022-11-24T17:25:35.469Z,87.46
2022-11-24T17:28:02.043Z,87.38
2022-11-24T17:30:28.714Z,87.35
2022-11-24T17:32:57.134Z,87.57
2022-11-24T17:35:23.792Z,87.49
2022-11-24T17:37:50.436Z,87.28
2022-11-24T17:40:32.391Z,87.27
2022-11-24T17:42:59.354Z,87.32
2022-11-24T17:45:26.099Z,87.51
2022-11-24T17:47:52.751Z,87.32
2022-11-24T17:50:25.460Z,87.51
2022-11-24T17:52:52.759Z,87.54
2022-11-24T17:55:19.348Z,87.46
2022-11-24T17:57:45.906Z,87.16
2022-11-24T18:00:13.808Z,86.89
2022-11-24T18:02:40.447Z,86.92
2022-11-24T18:05:07.808Z,86.87
2022-11-24T18:07:36.570Z,87.03
2022-11-24T18:10:03.945Z,86.89
2022-11-24T18:12:30.552Z,86.68
2022-11-24T18:14:57.234Z,86.21
2022-11-24T18:17:23.840Z,86.12
2022-11-24T18:19:50.562Z,85.78
2022-11-24T18:22:17.644Z,85.73
2022-11-24T18:24:47.010Z,85.59
2022-11-24T18:27:13.580Z,85.87
2022-11-24T18:29:40.142Z,85.96
2022-11-24T18:32:06.785Z,86.14
2022-11-24T18:34:33.741Z,86.46
2022-11-24T18:37:00.563Z,86.63
2022-11-24T18:39:27.097Z,86.72
2022-11-24T18:41:55.083Z,86.39
2022-11-24T18:44:21.775Z,86.05
2022-11-24T18:46:49.268Z,85.71
2022-11-24T18:49:15.877Z,86.14
2022-11-24T18:51:42.474Z,86.29
2022-11-24T18:54:09.035Z,87.24
2022-11-24T18:56:35.603Z,87.58
2022-11-24T18:59:03.525Z,87.72
2022-11-24T19:01:30.200Z,87.47
2022-11-24T19:03:58.442Z,86.96
2022-11-24T19:06:27.269Z,86.34
2022-11-24T19:08:54.725Z,86.90
2022-11-24T19:11:22.704Z,87.32
2022-11-24T19:13:50.502Z,87.21
2022-11-24T19:16:19.768Z,87.15
2022-11-24T19:18:51.971Z,86.86
2022-11-24T19:21:20.032Z,86.51
2022-11-24T19:23:46.643Z,86.30
2022-11-24T19:26:13.419Z,85.89
2022-11-24T19:28:40.045Z,85.55
2022-11-24T19:31:08.457Z,85.43
2022-11-24T19:33:36.511Z,85.16
2022-11-24T19:36:04.857Z,84.96
2022-11-24T19:38:33.201Z,85.07
2022-11-24T19:41:01.384Z,84.67
2022-11-24T19:43:28.022Z,84.75
2022-11-24T19:45:54.656Z,84.30
2022-11-24T19:48:21.340Z,84.23
2022-11-24T19:50:49.311Z,84.17
2022-11-24T19:53:15.910Z,83.79
2022-11-24T19:55:42.471Z,83.76
2022-11-24T19:58:09.034Z,83.84
2022-11-24T20:00:35.605Z,83.74
2022-11-24T20:03:02.268Z,83.57
2022-11-24T20:05:28.853Z,83.56
2022-11-24T20:07:56.954Z,83.36
2022-11-24T20:10:23.654Z,83.59
2022-11-24T20:12:50.628Z,83.87
2022-11-24T20:15:17.257Z,83.96
2022-11-24T20:17:43.840Z,84.61
2022-11-24T20:20:11.234Z,84.40
2022-11-24T20:22:37.795Z,84.31
2022-11-24T20:25:06.550Z,84.73
2022-11-24T20:27:33.133Z,84.92
2022-11-24T20:29:59.733Z,85.36
2022-11-24T20:32:26.311Z,85.58
2022-11-24T20:34:52.939Z,86.22
2022-11-24T20:37:19.513Z,86.93
2022-11-24T20:39:46.078Z,87.11
2022-11-24T20:42:14.044Z,87.48
2022-11-24T20:44:40.627Z,87.59
2022-11-24T20:47:07.185Z,87.67
2022-11-24T20:49:33.765Z,88.08
2022-11-24T20:52:00.356Z,87.71
2022-11-24T20:54:27.254Z,87.81
2022-11-24T20:56:54.167Z,87.66
2022-11-24T20:59:24.021Z,87.75
2022-11-24T21:01:51.934Z,87.95
2022-11-24T21:04:20.865Z,87.90
2022-11-24T21:06:47.614Z,88.00
2022-11-24T21:09:14.693Z,88.29
2022-11-24T21:11:41.754Z,88.41
2022-11-24T21:14:09.023Z,88.26
2022-11-24T21:16:38.576Z,88.29
2022-11-24T21:19:07.378Z,88.14
2022-11-24T21:21:35.948Z,88.27
2022-11-24T21:24:04.222Z,87.84
2022-11-24T21:26:30.791Z,88.01
2022-11-24T21:28:57.657Z,87.96
2022-11-24T21:31:24.307Z,87.94
2022-11-24T21:33:53.986Z,87.82
2022-11-24T21:36:22.751Z,88.34
2022-11-24T21:38:51.202Z,88.28
2022-11-24T21:41:18.654Z,88.34
2022-11-24T21:43:45.317Z,88.45
2022-11-24T21:46:12.949Z,88.44
2022-11-24T21:48:40.382Z,88.58
2022-11-24T21:51:12.314Z,88.66
2022-11-24T21:53:39.607Z,88.78
2022-11-24T21:56:07.960Z,88.50
2022-11-24T21:58:34.573Z,88.79
2022-11-24T22:01:02.127Z,88.39
2022-11-24T22:03:28.744Z,88.78
2022-11-24T22:05:56.532Z,88.69
2022-11-24T22:08:25.942Z,88.62
2022-11-24T22:10:52.885Z,88.63
2022-11-24T22:13:20.137Z,88.95
2022-11-24T22:15:46.753Z,89.12
2022-11-24T22:18:13.301Z,88.90
2022-11-24T22:20:39.881Z,89.27
2022-11-24T22:23:06.478Z,89.21
2022-11-24T22:25:34.704Z,89.40
2022-11-24T22:28:01.339Z,89.30
2022-11-24T22:30:27.940Z,89.39
2022-11-24T22:32:54.536Z,89.34
2022-11-24T22:35:21.897Z,89.40
2022-11-24T22:37:48.452Z,89.46
2022-11-24T22:40:15.260Z,89.42
2022-11-24T22:42:43.213Z,89.48
2022-11-24T22:45:10.452Z,89.44
2022-11-24T22:47:37.017Z,89.93
2022-11-24T22:50:04.553Z,89.58
2022-11-24T22:52:31.132Z,89.61
2022-11-24T22:54:57.713Z,89.43
2022-11-24T22:57:24.327Z,89.61
2022-11-24T22:59:52.300Z,89.54
2022-11-24T23:02:18.905Z,89.89
2022-11-24T23:04:45.464Z,89.62
2022-11-24T23:07:12.069Z,89.73
2022-11-24T23:09:38.629Z,89.83
2022-11-24T23:12:05.740Z,89.62
2022-11-24T23:14:32.408Z,89.64
2022-11-24T23:17:00.372Z,89.69
2022-11-24T23:19:26.964Z,89.58
2022-11-24T23:21:53.507Z,89.50
2022-11-24T23:24:20.090Z,89.50
2022-11-24T23:26:46.716Z,89.59
2022-11-24T23:29:13.354Z,89.57
2022-11-24T23:31:40.302Z,89.49
2022-11-24T23:34:08.519Z,89.54
2022-11-24T23:36:35.246Z,89.43
2022-11-24T23:39:03.329Z,88.98
2022-11-24T23:41:31.030Z,89.17
2022-11-24T23:43:57.668Z,89.28
2022-11-24T23:46:25.838Z,89.25
2022-11-24T23:48:53.980Z,89.42
2022-11-24T23:51:23.662Z,89.49
2022-11-24T23:53:51.120Z,89.19
2022-11-24T23:56:19.641Z,89.22
2022-11-24T23:58:46.642Z,89.05
